Safari Endeavour — WDG2742 — position and weather

sailwx.info

Track history (hours):
 
Tides and Currents Weather Stations Pressure Air Temp Water Temp Dewpoint Dewpoint Depression Visibility Wind Speed Wind Dir Waves Ship Positions

Safari Endeavour

Owner: InnerSea Discoveries, LLC, Seattle, WA. More information available from US FCC via Universal Licensing System and Coast Guard Vessel Documentation Center.

Last reported at 2018-Jun-22 07:02 UTC. Time now 2018-Jun-22 16:53 UTC.
Position N 58°08' W 135°29'.

Length 61 m; draft 3.1 m.

Type: Passenger vessel. MMSI: 338423000.

Date/timePositionNaut miles runAvg speedWind from/ knotsBaromVisibWave heightAir tempDewpointWater temp
2018-Jun-22 07:02N 58°08' W 135°29'111.4
2018-Jun-22 06:58N 58°09' W 135°29'5 9.6
2018-Jun-22 06:29N 58°13' W 135°32'510.7
2018-Jun-22 05:59N 58°16' W 135°40'510.5
2018-Jun-22 05:30N 58°19' W 135°49'4 8.9
2018-Jun-22 05:00N 58°20' W 135°57'5 9.3
2018-Jun-22 04:30N 58°25' W 135°57'4 7.1
2018-Jun-22 04:00N 58°28' W 135°54'2 3.3
2018-Jun-22 03:30N 58°26' W 135°56'4 7.7
2018-Jun-22 03:00N 58°28' W 136°02'4 8.4
2018-Jun-22 02:30N 58°32' W 136°04'510.5
2018-Jun-22 02:00N 58°37' W 136°02'1 2.7
2018-Jun-22 01:30N 58°39' W 136°03'0 0.2
2018-Jun-22 01:00N 58°39' W 136°03'2 4.9
2018-Jun-22 00:30N 58°40' W 136°07'5 9.2
2018-Jun-21 23:59N 58°43' W 136°14'14 3.5
2018-Jun-21 20:00N 58°54' W 136°30'9 1.1 120 / 21014.210.8 12.2
2018-Jun-21 11:24N 58°46' W 136°22'3 7.9
2018-Jun-21 11:00N 58°44' W 136°16'4 8.1
2018-Jun-21 10:30N 58°41' W 136°11'5 9.1
2018-Jun-21 10:00N 58°38' W 136°06'4 8.8
2018-Jun-21 09:30N 58°34' W 136°03'4 8.7
2018-Jun-21 09:00N 58°29' W 136°03'4 7.7
2018-Jun-21 08:30N 58°26' W 136°01'4 7.2
2018-Jun-21 08:01N 58°22' W 135°59'3 5.0
2018-Jun-21 07:30N 58°20' W 135°56'3 5.7
2018-Jun-21 07:01N 58°18' W 135°52'2 4.6
2018-Jun-21 06:31N 58°19' W 135°56'2 4.2
2018-Jun-21 06:00N 58°18' W 135°52'3 5.1
2018-Jun-21 05:30N 58°18' W 135°48'0 0.3
2018-Jun-21 05:00N 58°18' W 135°47'0 0.6
2018-Jun-21 04:30N 58°18' W 135°47'0 0.8
2018-Jun-21 04:00N 58°18' W 135°47'3 5.1
2018-Jun-21 03:30N 58°21' W 135°46'3 5.2
2018-Jun-21 03:00N 58°23' W 135°44'0 1.0
2018-Jun-21 02:30N 58°23' W 135°45'3 5.6
2018-Jun-21 02:00N 58°20' W 135°45'3 5.1
2018-Jun-21 01:31N 58°17' W 135°47'0 0.2
2018-Jun-21 00:59N 58°17' W 135°46'1 1.2
2018-Jun-21 00:30N 58°17' W 135°46'1 1.1
2018-Jun-21 00:00N 58°17' W 135°47'0 0.7
2018-Jun-20 23:30N 58°17' W 135°47'0 0.3
2018-Jun-20 23:00N 58°18' W 135°47'4 7.2
2018-Jun-20 22:31N 58°17' W 135°54'611.1
2018-Jun-20 22:00N 58°15' W 136°04'5 9.5
2018-Jun-20 21:30N 58°13' W 136°12'2 3.5
2018-Jun-20 20:53N 58°12' W 136°15'1 1.8
2018-Jun-20 20:28N 58°12' W 136°16'1 2.2
2018-Jun-20 20:00N 58°12' W 136°18'1124.2 360 / 71012.210.8 18.9
2018-Jun-20 19:59N 58°12' W 136°16'0 0.1
2018-Jun-20 19:30N 58°12' W 136°16'0 0.0
2018-Jun-20 18:58N 58°12' W 136°16'0 0.1
2018-Jun-20 18:30N 58°12' W 136°16'0 0.0
2018-Jun-20 17:56N 58°12' W 136°16'0 0.0
2018-Jun-20 17:29N 58°12' W 136°16'0 0.0
2018-Jun-20 17:00N 58°12' W 136°16'0 0.0
2018-Jun-20 16:30N 58°12' W 136°16'0 0.0
2018-Jun-20 16:00N 58°12' W 136°16'0 0.0
2018-Jun-20 15:29N 58°12' W 136°16'0 0.6
2018-Jun-20 14:59N 58°13' W 136°16'3 5.5
2018-Jun-20 14:29N 58°14' W 136°11'4 7.9
2018-Jun-20 14:00N 58°15' W 136°04'4 7.5
2018-Jun-20 13:30N 58°16' W 135°58'4 8.6
2018-Jun-20 13:00N 58°18' W 135°50'510.0
2018-Jun-20 12:30N 58°17' W 135°41'510.6
2018-Jun-20 12:00N 58°15' W 135°32'51 3.2
2018-Jun-19 20:00N 57°24' W 135°36'12 0.5 160 / 101019.310.8 16.1
2018-Jun-18 20:00N 57°12' W 135°36'65 1.4 180 / 21022.710.8 17.2
2018-Jun-16 20:00N 57°12' W 133°36'77 3.2 140 / 151025.410.8 12.2
2018-Jun-15 20:00N 57°42' W 135°48'78 3.3 250 / 151023.4 5.4 12.8
2018-Jun-14 20:00N 56°54' W 133°54'189 7.9 320 / 61015.610.8 12.8
2018-Jun-13 20:00N 60°00' W 132°48'163 6.8 340 / 51008.810.8 15.0
2018-Jun-12 20:00N 57°18' W 133°30'   099 1014.610.8 15.6
Track history (hours):
 
Tides and Currents Weather Stations Pressure Air Temp Water Temp Dewpoint Dewpoint Depression Visibility Wind Speed Wind Dir Waves Ship Positions

Safari Endeavour

Owner: InnerSea Discoveries, LLC, Seattle, WA. More information available from US FCC via Universal Licensing System and Coast Guard Vessel Documentation Center.

Last reported at 2018-Jun-22 07:02 UTC. Time now 2018-Jun-22 16:53 UTC.
Position N 58°08' W 135°29'.

Length 61 m; draft 3.1 m.

Type: Passenger vessel. MMSI: 338423000.

Date/timePositionNaut miles runAvg speedWind from/ knotsBaromVisibWave heightAir tempDewpointWater temp
2018-Jun-22 07:02N 58°08' W 135°29'111.4
2018-Jun-22 06:58N 58°09' W 135°29'5 9.6
2018-Jun-22 06:29N 58°13' W 135°32'510.7
2018-Jun-22 05:59N 58°16' W 135°40'510.5
2018-Jun-22 05:30N 58°19' W 135°49'4 8.9
2018-Jun-22 05:00N 58°20' W 135°57'5 9.3
2018-Jun-22 04:30N 58°25' W 135°57'4 7.1
2018-Jun-22 04:00N 58°28' W 135°54'2 3.3
2018-Jun-22 03:30N 58°26' W 135°56'4 7.7
2018-Jun-22 03:00N 58°28' W 136°02'4 8.4
2018-Jun-22 02:30N 58°32' W 136°04'510.5
2018-Jun-22 02:00N 58°37' W 136°02'1 2.7
2018-Jun-22 01:30N 58°39' W 136°03'0 0.2
2018-Jun-22 01:00N 58°39' W 136°03'2 4.9
2018-Jun-22 00:30N 58°40' W 136°07'5 9.2
2018-Jun-21 23:59N 58°43' W 136°14'14 3.5
2018-Jun-21 20:00N 58°54' W 136°30'9 1.1 120 / 21014.210.8 12.2
2018-Jun-21 11:24N 58°46' W 136°22'3 7.9
2018-Jun-21 11:00N 58°44' W 136°16'4 8.1
2018-Jun-21 10:30N 58°41' W 136°11'5 9.1
2018-Jun-21 10:00N 58°38' W 136°06'4 8.8
2018-Jun-21 09:30N 58°34' W 136°03'4 8.7
2018-Jun-21 09:00N 58°29' W 136°03'4 7.7
2018-Jun-21 08:30N 58°26' W 136°01'4 7.2
2018-Jun-21 08:01N 58°22' W 135°59'3 5.0
2018-Jun-21 07:30N 58°20' W 135°56'3 5.7
2018-Jun-21 07:01N 58°18' W 135°52'2 4.6
2018-Jun-21 06:31N 58°19' W 135°56'2 4.2
2018-Jun-21 06:00N 58°18' W 135°52'3 5.1
2018-Jun-21 05:30N 58°18' W 135°48'0 0.3
2018-Jun-21 05:00N 58°18' W 135°47'0 0.6
2018-Jun-21 04:30N 58°18' W 135°47'0 0.8
2018-Jun-21 04:00N 58°18' W 135°47'3 5.1
2018-Jun-21 03:30N 58°21' W 135°46'3 5.2
2018-Jun-21 03:00N 58°23' W 135°44'0 1.0
2018-Jun-21 02:30N 58°23' W 135°45'3 5.6
2018-Jun-21 02:00N 58°20' W 135°45'3 5.1
2018-Jun-21 01:31N 58°17' W 135°47'0 0.2
2018-Jun-21 00:59N 58°17' W 135°46'1 1.2
2018-Jun-21 00:30N 58°17' W 135°46'1 1.1
2018-Jun-21 00:00N 58°17' W 135°47'0 0.7
2018-Jun-20 23:30N 58°17' W 135°47'0 0.3
2018-Jun-20 23:00N 58°18' W 135°47'4 7.2
2018-Jun-20 22:31N 58°17' W 135°54'611.1
2018-Jun-20 22:00N 58°15' W 136°04'5 9.5
2018-Jun-20 21:30N 58°13' W 136°12'2 3.5
2018-Jun-20 20:53N 58°12' W 136°15'1 1.8
2018-Jun-20 20:28N 58°12' W 136°16'1 2.2
2018-Jun-20 20:00N 58°12' W 136°18'1124.2 360 / 71012.210.8 18.9
2018-Jun-20 19:59N 58°12' W 136°16'0 0.1
2018-Jun-20 19:30N 58°12' W 136°16'0 0.0
2018-Jun-20 18:58N 58°12' W 136°16'0 0.1
2018-Jun-20 18:30N 58°12' W 136°16'0 0.0
2018-Jun-20 17:56N 58°12' W 136°16'0 0.0
2018-Jun-20 17:29N 58°12' W 136°16'0 0.0
2018-Jun-20 17:00N 58°12' W 136°16'0 0.0
2018-Jun-20 16:30N 58°12' W 136°16'0 0.0
2018-Jun-20 16:00N 58°12' W 136°16'0 0.0
2018-Jun-20 15:29N 58°12' W 136°16'0 0.6
2018-Jun-20 14:59N 58°13' W 136°16'3 5.5
2018-Jun-20 14:29N 58°14' W 136°11'4 7.9
2018-Jun-20 14:00N 58°15' W 136°04'4 7.5
2018-Jun-20 13:30N 58°16' W 135°58'4 8.6
2018-Jun-20 13:00N 58°18' W 135°50'510.0
2018-Jun-20 12:30N 58°17' W 135°41'510.6
2018-Jun-20 12:00N 58°15' W 135°32'51 3.2
2018-Jun-19 20:00N 57°24' W 135°36'12 0.5 160 / 101019.310.8 16.1
2018-Jun-18 20:00N 57°12' W 135°36'65 1.4 180 / 21022.710.8 17.2
2018-Jun-16 20:00N 57°12' W 133°36'77 3.2 140 / 151025.410.8 12.2
2018-Jun-15 20:00N 57°42' W 135°48'78 3.3 250 / 151023.4 5.4 12.8
2018-Jun-14 20:00N 56°54' W 133°54'189 7.9 320 / 61015.610.8 12.8
2018-Jun-13 20:00N 60°00' W 132°48'163 6.8 340 / 51008.810.8 15.0
2018-Jun-12 20:00N 57°18' W 133°30'   099 1014.610.8 15.6

Dump ship's entire track history